Ne plus se rappeler de moi
Bonjour et Bienvenue
Pas de session ouverte
Dimanche 23/11/2014
d:\inetpub\wwwroot\acrroussillon\reservation\ACR\IMAGES\IMG1.JPGd:\inetpub\wwwroot\acrroussillon\reservation\ACR\IMAGES\IMG2.JPGd:\inetpub\wwwroot\acrroussillon\reservation\ACR/IMAGES/IMG3.jpg
00:00:00
Horaires du 23/11/2014 (Données à titre indicatif seulement).
Lever du soleil : 07h50 - Coucher du soleil : 17h20 (Heure Locale)
Jour aéronautique : 07h20 - Nuit aéronautique : 17h50 (Heure Locale)
Planning des réservations des aéronefs
Planning des réservations des aéronefs
2014/11/23 21:30
LFMP 232130Z AUTO 11008KT 7000 OVC005 18/17 Q1019
Planning des réservations des aéronefs
2014/11/23 18:15
TAF LFMP 231700Z 2318/2418 11008KT 6000 BKN006
TEMPO 2322/2410 1500 BR BKN003
Informations sur les aéronefs
Informations sur les aéronefs
Modifications des Types de vols
ATTENTION PLUS DE PAIEMENT EN LIGNE DEPUIS LA MAISON
AEROCLUB DU ROUSSILLON. AVENUE MAURICE BELLONTE. 66000 PERPIGNAN. Tel : 04.68.73.48.18 Fax : 09.55.16.18.97 Courriel : aeroclub-roussillon@hotmail.fr
 METAR / TAF
LIENS UTILES
envoyer un e-mail
d:\inetpub\wwwroot\acrroussillon\reservation\ACR/IMAGES/Logo.jpg
Identifiez vous pour interaction
d:\inetpub\wwwroot\acrroussillon\reservation\ACR/IMAGES/Logo.jpg
Aéro-Club du Roussillon